createdAt,value
2022-08-25T04:30:59.689Z,20.52
2022-08-25T04:31:59.709Z,20.59
2022-08-25T04:32:59.637Z,20.66
2022-08-25T04:33:59.626Z,20.61
2022-08-25T04:34:59.624Z,20.64
2022-08-25T04:35:59.656Z,20.62
2022-08-25T04:36:59.616Z,20.64
2022-08-25T04:37:59.638Z,20.59
2022-08-25T04:38:59.634Z,20.59
2022-08-25T04:39:59.613Z,20.57
2022-08-25T04:40:59.557Z,20.50
2022-08-25T04:41:59.590Z,20.57
2022-08-25T04:42:59.524Z,20.52
2022-08-25T04:43:59.539Z,20.55
2022-08-25T04:44:59.499Z,20.43
2022-08-25T04:45:59.577Z,20.47
2022-08-25T04:46:59.534Z,20.41
2022-08-25T04:47:59.467Z,20.42
2022-08-25T04:48:59.480Z,20.43
2022-08-25T04:49:59.453Z,20.43
2022-08-25T04:50:59.450Z,20.42
2022-08-25T04:51:59.487Z,20.51
2022-08-25T04:52:59.422Z,20.62
2022-08-25T04:53:59.426Z,20.59
2022-08-25T04:54:59.422Z,20.59
2022-08-25T04:56:03.216Z,20.73
2022-08-25T04:56:59.368Z,20.69
2022-08-25T04:57:59.427Z,20.70
2022-08-25T04:58:59.358Z,20.82
2022-08-25T04:59:59.407Z,20.82
2022-08-25T05:00:59.385Z,20.85
2022-08-25T05:01:59.488Z,20.88
2022-08-25T05:02:59.305Z,20.94
2022-08-25T05:03:59.314Z,21.01
2022-08-25T05:04:59.303Z,21.03
2022-08-25T05:05:59.290Z,21.09
2022-08-25T05:06:59.278Z,21.17
2022-08-25T05:07:59.313Z,21.19
2022-08-25T05:08:59.239Z,21.13
2022-08-25T05:09:59.246Z,21.16
2022-08-25T05:10:59.218Z,21.27
2022-08-25T05:11:59.254Z,21.24
2022-08-25T05:12:59.197Z,21.27
2022-08-25T05:13:59.198Z,21.24
2022-08-25T05:14:59.204Z,21.29
2022-08-25T05:16:00.238Z,21.27
2022-08-25T05:16:59.157Z,21.38
2022-08-25T05:17:59.155Z,21.40
2022-08-25T05:18:59.131Z,21.29
2022-08-25T05:19:59.116Z,21.35
2022-08-25T05:20:59.128Z,21.32
2022-08-25T05:21:59.108Z,21.40
2022-08-25T05:22:59.113Z,21.42
2022-08-25T05:23:59.079Z,21.42
2022-08-25T05:24:59.125Z,21.42
2022-08-25T05:25:59.049Z,21.52
2022-08-25T05:26:59.060Z,21.42
2022-08-25T05:27:59.103Z,21.52
2022-08-25T05:28:59.053Z,21.54
2022-08-25T05:29:59.010Z,21.52
2022-08-25T05:30:59.049Z,21.50
2022-08-25T05:31:59.088Z,21.58
2022-08-25T05:32:58.980Z,21.52
2022-08-25T05:33:58.975Z,21.61
2022-08-25T05:34:58.973Z,21.59
2022-08-25T05:35:58.943Z,21.61
2022-08-25T05:36:58.936Z,21.64
2022-08-25T05:37:58.993Z,21.68
2022-08-25T05:38:58.912Z,21.69
2022-08-25T05:39:58.945Z,21.64
2022-08-25T05:40:58.892Z,21.67
2022-08-25T05:41:58.911Z,21.67
2022-08-25T05:42:58.870Z,21.69
2022-08-25T05:43:58.862Z,21.72
2022-08-25T05:44:58.847Z,21.74
2022-08-25T05:45:58.912Z,21.75
2022-08-25T05:46:58.867Z,21.74
2022-08-25T05:47:58.814Z,21.75
2022-08-25T05:48:58.806Z,21.82
2022-08-25T05:49:58.797Z,21.83
2022-08-25T05:50:58.784Z,21.84
2022-08-25T05:51:58.777Z,21.94
2022-08-25T05:52:58.800Z,21.83
2022-08-25T05:53:58.751Z,21.88
2022-08-25T05:54:58.746Z,21.86
2022-08-25T05:55:58.750Z,21.98
2022-08-25T05:56:58.719Z,22.02
2022-08-25T05:57:58.709Z,22.05
2022-08-25T05:58:58.736Z,22.09
2022-08-25T05:59:58.681Z,22.06
2022-08-25T06:00:58.736Z,22.12
2022-08-25T06:01:58.662Z,22.12
2022-08-25T06:02:58.686Z,22.21
2022-08-25T06:03:58.701Z,22.17
2022-08-25T06:04:58.638Z,22.07
2022-08-25T06:05:58.639Z,22.22
2022-08-25T06:06:58.619Z,22.22
2022-08-25T06:07:58.613Z,22.30
2022-08-25T06:08:58.608Z,22.33
2022-08-25T06:09:58.579Z,22.37
2022-08-25T06:10:58.569Z,22.35
2022-08-25T06:11:58.599Z,22.43
2022-08-25T06:12:58.564Z,22.45
2022-08-25T06:13:58.553Z,22.51
2022-08-25T06:14:58.532Z,22.55
2022-08-25T06:15:58.560Z,22.65
2022-08-25T06:16:58.502Z,22.73
2022-08-25T06:18:01.614Z,22.80
2022-08-25T06:18:58.495Z,22.82
2022-08-25T06:19:58.502Z,22.83
2022-08-25T06:20:58.463Z,22.94
2022-08-25T06:21:58.457Z,23.00
2022-08-25T06:22:58.436Z,23.04
2022-08-25T06:23:58.445Z,23.09
2022-08-25T06:24:58.418Z,23.07
2022-08-25T06:25:58.421Z,23.22
2022-08-25T06:26:58.392Z,23.28
2022-08-25T06:27:58.391Z,23.32
2022-08-25T06:28:58.373Z,23.43
2022-08-25T06:29:58.368Z,23.50
2022-08-25T06:30:59.361Z,23.60
2022-08-25T06:31:58.392Z,23.66
2022-08-25T06:32:58.335Z,23.72
2022-08-25T06:33:58.318Z,23.78
2022-08-25T06:34:58.305Z,23.76
2022-08-25T06:35:58.321Z,23.70
2022-08-25T06:36:58.295Z,23.70
2022-08-25T06:37:58.284Z,23.73
2022-08-25T06:38:58.287Z,23.79
2022-08-25T06:39:58.355Z,23.90
2022-08-25T06:40:58.241Z,24.09
2022-08-25T06:41:58.247Z,24.25
2022-08-25T06:42:58.257Z,24.30
2022-08-25T06:44:05.576Z,24.37
2022-08-25T06:44:59.214Z,24.45
2022-08-25T06:45:58.187Z,24.52
2022-08-25T06:46:58.196Z,24.61
2022-08-25T06:47:58.186Z,24.67
2022-08-25T06:48:58.188Z,24.78
2022-08-25T06:49:58.163Z,24.83
2022-08-25T06:50:58.133Z,24.99
2022-08-25T06:51:58.126Z,25.02
2022-08-25T06:52:58.115Z,25.14
2022-08-25T06:53:58.111Z,25.18
2022-08-25T06:54:58.233Z,25.27
2022-08-25T06:55:58.081Z,25.36
2022-08-25T06:56:58.133Z,25.38
2022-08-25T06:57:58.050Z,25.51
2022-08-25T06:58:58.062Z,25.55
2022-08-25T06:59:58.049Z,25.72
2022-08-25T07:00:58.065Z,25.70
2022-08-25T07:01:58.099Z,25.80
2022-08-25T07:02:58.039Z,25.80
2022-08-25T07:03:57.989Z,25.87
2022-08-25T07:04:57.992Z,25.97
2022-08-25T07:05:57.988Z,25.91
2022-08-25T07:06:57.954Z,26.05
2022-08-25T07:07:57.943Z,26.13
2022-08-25T07:08:57.951Z,26.26
2022-08-25T07:09:57.942Z,26.23
2022-08-25T07:10:57.921Z,26.18
2022-08-25T07:11:57.903Z,26.13
2022-08-25T07:12:57.903Z,26.20
2022-08-25T07:13:57.892Z,26.32
2022-08-25T07:15:17.146Z,26.36
2022-08-25T07:15:58.891Z,26.29
2022-08-25T07:16:57.867Z,26.32
2022-08-25T07:17:57.832Z,26.48
2022-08-25T07:18:57.825Z,26.36
2022-08-25T07:19:57.869Z,26.28
2022-08-25T07:20:57.821Z,26.32
2022-08-25T07:21:57.821Z,26.45
2022-08-25T07:22:57.803Z,26.52
2022-08-25T07:23:57.775Z,26.62
2022-08-25T07:24:57.785Z,26.72
2022-08-25T07:25:57.767Z,26.91
2022-08-25T07:26:57.741Z,27.02
2022-08-25T07:28:58.720Z,27.09
2022-08-25T07:29:57.729Z,27.06
2022-08-25T07:30:57.747Z,27.10
2022-08-25T07:31:57.777Z,27.31
2022-08-25T07:32:57.675Z,27.43
2022-08-25T07:33:57.688Z,27.55
2022-08-25T07:34:57.667Z,27.60
2022-08-25T07:35:57.640Z,27.62
2022-08-25T07:36:57.627Z,27.62
2022-08-25T07:37:57.637Z,27.40
2022-08-25T07:38:57.630Z,27.34
2022-08-25T07:39:57.683Z,27.24
2022-08-25T07:40:57.621Z,27.19
2022-08-25T07:41:57.585Z,27.44
2022-08-25T07:42:57.567Z,27.50
2022-08-25T07:43:57.572Z,27.49
2022-08-25T07:44:57.570Z,27.66
2022-08-25T07:45:57.543Z,27.78
2022-08-25T07:46:57.552Z,27.93
2022-08-25T07:47:57.522Z,28.03
2022-08-25T07:48:57.503Z,28.03
2022-08-25T07:49:57.566Z,27.96
2022-08-25T07:50:57.484Z,28.06
2022-08-25T07:52:05.697Z,28.09
2022-08-25T07:52:58.461Z,28.03
2022-08-25T07:53:57.499Z,28.14
2022-08-25T07:54:57.448Z,28.12
2022-08-25T07:55:57.546Z,28.03
2022-08-25T07:56:57.420Z,28.02
2022-08-25T07:57:57.551Z,28.09
2022-08-25T07:58:57.415Z,28.04
2022-08-25T07:59:57.516Z,27.99
2022-08-25T08:00:57.381Z,27.97
2022-08-25T08:01:57.479Z,28.09
2022-08-25T08:02:57.405Z,28.15
2022-08-25T08:04:00.397Z,28.27
2022-08-25T08:04:57.336Z,28.34
2022-08-25T08:05:57.320Z,28.44
2022-08-25T08:06:57.329Z,28.48
2022-08-25T08:07:57.330Z,28.59
2022-08-25T08:08:57.981Z,28.58
2022-08-25T08:10:32.827Z,28.55
2022-08-25T08:11:04.610Z,28.62
2022-08-25T08:11:58.256Z,28.67
2022-08-25T08:12:57.283Z,28.68
2022-08-25T08:13:57.247Z,28.74
2022-08-25T08:14:57.243Z,28.90
2022-08-25T08:15:57.384Z,28.95
2022-08-25T08:16:57.205Z,28.88
2022-08-25T08:17:57.893Z,28.85
2022-08-25T08:18:57.187Z,28.74
2022-08-25T08:19:57.191Z,28.89
2022-08-25T08:20:57.188Z,28.98
2022-08-25T08:21:57.165Z,29.14
2022-08-25T08:22:57.149Z,29.31
2022-08-25T08:23:59.048Z,29.39
2022-08-25T08:24:57.219Z,29.33
2022-08-25T08:25:57.130Z,29.42
2022-08-25T08:26:59.140Z,29.43
2022-08-25T08:27:57.089Z,29.57
2022-08-25T08:28:57.189Z,29.63
2022-08-25T08:29:57.098Z,29.60
2022-08-25T08:30:57.093Z,29.70
2022-08-25T08:31:57.047Z,29.76
2022-08-25T08:33:09.582Z,29.60
2022-08-25T08:33:58.055Z,29.55
2022-08-25T08:34:57.036Z,29.65
2022-08-25T08:35:57.033Z,29.67
2022-08-25T08:36:56.993Z,29.74
2022-08-25T08:37:57.029Z,29.78
2022-08-25T08:38:56.969Z,29.67
2022-08-25T08:39:56.998Z,29.68
2022-08-25T08:40:57.042Z,29.76
2022-08-25T08:42:12.379Z,29.71
2022-08-25T08:42:57.930Z,29.79
2022-08-25T08:43:56.946Z,29.79
2022-08-25T08:44:59.155Z,30.01
2022-08-25T08:45:56.914Z,30.19
2022-08-25T08:46:56.984Z,30.24
2022-08-25T08:47:56.891Z,30.38
2022-08-25T08:48:56.857Z,30.37
2022-08-25T08:49:56.865Z,30.39
2022-08-25T08:50:56.836Z,30.32
2022-08-25T08:51:56.827Z,30.43
2022-08-25T08:52:56.850Z,30.45
2022-08-25T08:53:57.358Z,30.60
2022-08-25T08:54:56.826Z,30.47
2022-08-25T08:55:56.820Z,30.54
2022-08-25T08:56:56.840Z,30.58
2022-08-25T08:57:56.766Z,30.60
2022-08-25T08:58:56.755Z,30.64
2022-08-25T08:59:56.826Z,30.77
2022-08-25T09:00:56.733Z,30.79
2022-08-25T09:01:56.800Z,30.88
2022-08-25T09:02:56.772Z,30.61
2022-08-25T09:03:56.697Z,30.57
2022-08-25T09:04:56.713Z,30.51
2022-08-25T09:05:56.692Z,30.53
2022-08-25T09:06:56.672Z,30.61
2022-08-25T09:07:56.687Z,30.75
2022-08-25T09:08:56.679Z,30.82
2022-08-25T09:09:56.659Z,30.94
2022-08-25T09:10:56.629Z,31.07
2022-08-25T09:11:56.632Z,30.95
2022-08-25T09:12:56.644Z,30.91
2022-08-25T09:13:56.603Z,30.94
2022-08-25T09:14:56.592Z,30.98
2022-08-25T09:15:57.531Z,31.01
2022-08-25T09:16:56.586Z,31.20
2022-08-25T09:17:56.558Z,31.29
2022-08-25T09:18:56.550Z,31.10
2022-08-25T09:19:56.535Z,31.13
2022-08-25T09:20:56.565Z,31.35
2022-08-25T09:21:56.535Z,31.41
2022-08-25T09:22:56.518Z,31.38
2022-08-25T09:23:56.517Z,31.39
2022-08-25T09:24:56.484Z,31.14
2022-08-25T09:25:56.473Z,30.84
2022-08-25T09:26:56.492Z,30.94
2022-08-25T09:27:56.448Z,31.07
2022-08-25T09:28:56.502Z,31.14
2022-08-25T09:29:56.453Z,31.28
2022-08-25T09:30:56.667Z,31.44
2022-08-25T09:31:56.437Z,31.46
2022-08-25T09:32:56.392Z,31.48
2022-08-25T09:33:56.408Z,31.57
2022-08-25T09:34:56.374Z,31.73
2022-08-25T09:35:57.497Z,31.63
2022-08-25T09:36:56.384Z,31.66
2022-08-25T09:37:56.359Z,31.56
2022-08-25T09:38:56.331Z,31.76
2022-08-25T09:39:56.362Z,31.76
2022-08-25T09:40:56.307Z,31.89
2022-08-25T09:41:56.347Z,31.81
2022-08-25T09:42:58.057Z,31.93
2022-08-25T09:43:56.286Z,32.00
2022-08-25T09:44:56.292Z,32.01
2022-08-25T09:45:56.278Z,32.10
2022-08-25T09:46:56.260Z,32.19
2022-08-25T09:47:56.269Z,32.40
2022-08-25T09:48:56.713Z,32.51
2022-08-25T09:49:56.231Z,32.60
2022-08-25T09:50:56.213Z,32.70
2022-08-25T09:51:56.262Z,32.96
2022-08-25T09:52:56.183Z,32.92
2022-08-25T09:53:56.213Z,32.99
2022-08-25T09:54:56.268Z,32.97
2022-08-25T09:55:59.884Z,32.88
2022-08-25T09:56:56.152Z,33.03
2022-08-25T09:57:56.135Z,32.94
2022-08-25T09:59:00.053Z,32.92
2022-08-25T09:59:57.684Z,33.03
2022-08-25T10:00:56.112Z,33.03
2022-08-25T10:01:56.177Z,32.94
2022-08-25T10:02:56.085Z,32.88
2022-08-25T10:03:56.110Z,32.78
2022-08-25T10:04:56.163Z,32.84
2022-08-25T10:05:56.258Z,32.92
2022-08-25T10:06:56.073Z,32.94
2022-08-25T10:07:56.042Z,32.96
2022-08-25T10:08:56.028Z,33.07
2022-08-25T10:09:56.006Z,33.00
2022-08-25T10:10:56.002Z,33.03
2022-08-25T10:11:57.949Z,32.97
2022-08-25T10:12:55.990Z,33.06
2022-08-25T10:13:55.968Z,33.14
2022-08-25T10:14:55.957Z,33.01
2022-08-25T10:15:56.051Z,33.09
2022-08-25T10:16:55.948Z,33.22
2022-08-25T10:17:55.924Z,33.32
2022-08-25T10:18:55.907Z,33.35
2022-08-25T10:19:55.913Z,33.18
2022-08-25T10:20:55.920Z,33.18
2022-08-25T10:21:55.880Z,33.26
2022-08-25T10:22:55.864Z,33.34
2022-08-25T10:23:55.862Z,33.37
2022-08-25T10:24:55.880Z,33.26
2022-08-25T10:25:57.936Z,33.22
2022-08-25T10:26:56.842Z,33.11
2022-08-25T10:27:55.851Z,33.01
2022-08-25T10:28:55.837Z,33.01
2022-08-25T10:29:55.789Z,32.94
2022-08-25T10:30:55.825Z,32.82
2022-08-25T10:31:55.786Z,32.84
2022-08-25T10:32:55.818Z,32.92
2022-08-25T10:33:55.755Z,32.59
2022-08-25T10:34:55.743Z,32.67
2022-08-25T10:35:55.732Z,32.82
2022-08-25T10:36:56.125Z,32.89
2022-08-25T10:37:55.745Z,33.14
2022-08-25T10:38:55.718Z,33.34
2022-08-25T10:39:55.922Z,33.35
2022-08-25T10:40:55.691Z,33.29
2022-08-25T10:41:55.705Z,33.31
2022-08-25T10:42:55.659Z,33.45
2022-08-25T10:43:55.666Z,33.61
2022-08-25T10:44:55.654Z,33.65
2022-08-25T10:45:55.670Z,33.73
2022-08-25T10:46:55.640Z,33.75
2022-08-25T10:47:55.636Z,33.78
2022-08-25T10:48:55.604Z,33.71
2022-08-25T10:49:55.588Z,33.86
2022-08-25T10:50:55.618Z,33.79
2022-08-25T10:51:55.604Z,33.78
2022-08-25T10:52:55.561Z,33.82
2022-08-25T10:53:56.130Z,33.72
2022-08-25T10:54:55.536Z,33.86
2022-08-25T10:55:55.525Z,33.78
2022-08-25T10:56:58.498Z,33.72
2022-08-25T10:57:55.635Z,33.84
2022-08-25T10:58:55.540Z,33.81
2022-08-25T10:59:55.482Z,33.75
2022-08-25T11:00:55.590Z,33.86
2022-08-25T11:01:55.487Z,33.65
2022-08-25T11:02:55.455Z,33.54
2022-08-25T11:03:55.510Z,33.44
2022-08-25T11:04:55.459Z,33.45
2022-08-25T11:05:55.433Z,33.49
2022-08-25T11:06:55.417Z,33.53
2022-08-25T11:07:55.499Z,33.68
2022-08-25T11:08:55.410Z,33.66
2022-08-25T11:09:55.385Z,33.84
2022-08-25T11:10:55.394Z,33.69
2022-08-25T11:11:55.365Z,33.91
2022-08-25T11:12:55.344Z,33.87
2022-08-25T11:13:55.359Z,33.84
2022-08-25T11:14:55.328Z,33.78
2022-08-25T11:16:15.982Z,33.81
2022-08-25T11:16:56.372Z,33.78
2022-08-25T11:17:55.472Z,33.79
2022-08-25T11:18:55.322Z,33.65
2022-08-25T11:19:55.275Z,33.61
2022-08-25T11:20:55.268Z,33.76
2022-08-25T11:21:55.280Z,33.75
2022-08-25T11:22:55.421Z,33.72
2022-08-25T11:23:55.233Z,33.60
2022-08-25T11:24:55.223Z,33.66
2022-08-25T11:25:55.210Z,33.86
2022-08-25T11:26:55.225Z,33.86
2022-08-25T11:27:55.191Z,34.05
2022-08-25T11:28:55.189Z,34.13
2022-08-25T11:29:55.189Z,34.10
2022-08-25T11:30:55.231Z,34.21
2022-08-25T11:31:55.162Z,34.31
2022-08-25T11:32:55.271Z,34.31
2022-08-25T11:33:55.134Z,34.25
2022-08-25T11:34:55.137Z,34.06
2022-08-25T11:35:55.132Z,33.91
2022-08-25T11:36:55.094Z,33.91
2022-08-25T11:37:55.128Z,33.94
2022-08-25T11:38:55.105Z,34.05
2022-08-25T11:39:55.091Z,33.97
2022-08-25T11:40:55.092Z,33.76
2022-08-25T11:41:55.113Z,33.88
2022-08-25T11:42:55.089Z,33.91
2022-08-25T11:43:55.073Z,33.86
2022-08-25T11:44:55.199Z,33.63
2022-08-25T11:45:55.101Z,33.66
2022-08-25T11:46:55.004Z,33.90
2022-08-25T11:47:55.006Z,34.08
2022-08-25T11:48:55.061Z,34.22
2022-08-25T11:49:55.006Z,34.12
2022-08-25T11:50:55.003Z,34.13
2022-08-25T11:51:54.951Z,34.00
2022-08-25T11:52:56.053Z,33.91
2022-08-25T11:53:54.957Z,33.87
2022-08-25T11:54:54.913Z,33.95
2022-08-25T11:55:54.936Z,33.87
2022-08-25T11:56:54.895Z,34.10
2022-08-25T11:57:54.932Z,34.15
2022-08-25T11:58:54.871Z,34.25
2022-08-25T11:59:54.863Z,34.25
2022-08-25T12:00:54.868Z,34.10
2022-08-25T12:01:54.851Z,34.15
2022-08-25T12:02:58.395Z,34.25
2022-08-25T12:03:55.030Z,34.25
2022-08-25T12:04:54.853Z,34.19
2022-08-25T12:05:54.824Z,34.22
2022-08-25T12:06:54.794Z,34.30
2022-08-25T12:07:54.784Z,34.39
2022-08-25T12:08:57.488Z,34.34
2022-08-25T12:09:54.758Z,34.43
2022-08-25T12:10:54.748Z,34.37
2022-08-25T12:11:54.758Z,34.35
2022-08-25T12:12:54.814Z,34.28
2022-08-25T12:13:54.735Z,34.22
2022-08-25T12:14:54.766Z,34.08
2022-08-25T12:15:54.701Z,34.06
2022-08-25T12:16:54.752Z,33.97
2022-08-25T12:17:54.683Z,33.87
2022-08-25T12:18:54.670Z,34.02
2022-08-25T12:19:54.695Z,34.13
2022-08-25T12:20:54.653Z,34.25
2022-08-25T12:21:54.643Z,34.27
2022-08-25T12:22:54.652Z,34.21
2022-08-25T12:23:54.621Z,34.05
2022-08-25T12:24:54.619Z,33.84
2022-08-25T12:25:54.598Z,33.94
2022-08-25T12:26:54.597Z,33.90
2022-08-25T12:27:54.584Z,33.95
2022-08-25T12:28:54.558Z,34.12
2022-08-25T12:29:54.547Z,34.12
2022-08-25T12:30:54.594Z,34.16
2022-08-25T12:31:54.528Z,34.25
2022-08-25T12:32:54.602Z,34.19
2022-08-25T12:33:54.519Z,34.16
2022-08-25T12:34:54.499Z,34.16
2022-08-25T12:35:54.517Z,34.17
2022-08-25T12:36:54.475Z,34.30
2022-08-25T12:37:54.467Z,34.31
2022-08-25T12:38:54.495Z,34.25
2022-08-25T12:39:54.513Z,34.28
2022-08-25T12:40:54.460Z,34.13
2022-08-25T12:41:54.462Z,34.08
2022-08-25T12:42:54.416Z,34.02
2022-08-25T12:43:54.441Z,34.03
2022-08-25T12:44:54.414Z,34.19
2022-08-25T12:45:54.461Z,34.30
2022-08-25T12:46:54.381Z,34.24
2022-08-25T12:47:54.358Z,34.24
2022-08-25T12:48:54.353Z,34.19
2022-08-25T12:49:54.343Z,34.06
2022-08-25T12:50:54.361Z,33.93
2022-08-25T12:51:54.346Z,33.94
2022-08-25T12:52:54.312Z,33.91
2022-08-25T12:53:54.301Z,33.93
2022-08-25T12:54:54.323Z,33.81
2022-08-25T12:55:54.278Z,33.81
2022-08-25T12:56:54.277Z,33.63
2022-08-25T12:57:54.267Z,33.63
2022-08-25T12:59:00.920Z,33.59
2022-08-25T12:59:55.260Z,33.49
2022-08-25T13:00:56.760Z,33.45
2022-08-25T13:01:55.324Z,33.50
2022-08-25T13:02:54.301Z,33.49
2022-08-25T13:03:54.225Z,33.61
2022-08-25T13:04:54.195Z,33.68
2022-08-25T13:05:54.193Z,33.76
2022-08-25T13:06:54.170Z,33.76
2022-08-25T13:07:54.160Z,33.75
2022-08-25T13:08:54.155Z,33.61
2022-08-25T13:09:54.159Z,33.71
2022-08-25T13:10:54.157Z,33.61
2022-08-25T13:11:54.114Z,33.59
2022-08-25T13:12:54.199Z,33.65
2022-08-25T13:13:54.094Z,33.45
2022-08-25T13:14:54.103Z,33.49
2022-08-25T13:15:54.092Z,33.49
2022-08-25T13:16:54.199Z,33.39
2022-08-25T13:17:54.069Z,33.44
2022-08-25T13:18:54.048Z,33.39
2022-08-25T13:19:54.053Z,33.38
2022-08-25T13:20:54.046Z,33.31
2022-08-25T13:21:54.714Z,33.32
2022-08-25T13:23:06.509Z,33.37
2022-08-25T13:24:04.601Z,33.38
2022-08-25T13:24:55.003Z,33.32
2022-08-25T13:25:53.992Z,33.32
2022-08-25T13:26:53.962Z,33.19
2022-08-25T13:27:53.959Z,33.07
2022-08-25T13:28:53.942Z,32.85
2022-08-25T13:29:53.927Z,32.82
2022-08-25T13:30:53.921Z,32.88
2022-08-25T13:31:53.988Z,32.99
2022-08-25T13:32:53.982Z,32.93
2022-08-25T13:33:54.845Z,33.01
2022-08-25T13:34:53.887Z,33.12
2022-08-25T13:35:53.890Z,33.16
2022-08-25T13:36:54.091Z,33.16
2022-08-25T13:37:53.839Z,33.22
2022-08-25T13:38:53.862Z,33.34
2022-08-25T13:39:56.722Z,33.28
2022-08-25T13:40:53.891Z,33.22
2022-08-25T13:41:55.524Z,33.23
2022-08-25T13:42:56.115Z,33.26
2022-08-25T13:43:53.785Z,33.21
2022-08-25T13:44:53.953Z,33.15
2022-08-25T13:45:53.787Z,33.11
2022-08-25T13:46:53.798Z,33.07
2022-08-25T13:47:55.694Z,33.07
2022-08-25T13:48:53.732Z,33.09
2022-08-25T13:49:56.569Z,33.03
2022-08-25T13:50:53.714Z,33.06
2022-08-25T13:51:53.712Z,33.07
2022-08-25T13:52:53.718Z,33.06
2022-08-25T13:53:53.713Z,33.03
2022-08-25T13:54:53.683Z,33.00
2022-08-25T13:55:53.663Z,33.03
2022-08-25T13:56:53.646Z,33.03
2022-08-25T13:57:53.652Z,32.94
2022-08-25T13:58:53.626Z,32.94
2022-08-25T13:59:53.613Z,32.94
2022-08-25T14:00:53.731Z,32.99
2022-08-25T14:01:53.794Z,32.88
2022-08-25T14:02:53.695Z,32.82
2022-08-25T14:03:53.564Z,32.82
2022-08-25T14:04:53.945Z,32.89
2022-08-25T14:05:53.543Z,32.85
2022-08-25T14:06:53.614Z,32.84
2022-08-25T14:08:09.112Z,32.82
2022-08-25T14:08:54.817Z,32.81
2022-08-25T14:09:53.504Z,32.67
2022-08-25T14:10:53.493Z,32.70
2022-08-25T14:11:53.493Z,32.70
2022-08-25T14:12:53.536Z,32.69
2022-08-25T14:13:53.464Z,32.69
2022-08-25T14:14:53.457Z,32.66
2022-08-25T14:15:53.461Z,32.70
2022-08-25T14:16:54.205Z,32.66
2022-08-25T14:17:53.455Z,32.70
2022-08-25T14:18:53.437Z,32.72
2022-08-25T14:19:53.397Z,32.81
2022-08-25T14:20:53.410Z,32.82
2022-08-25T14:21:56.782Z,32.85
2022-08-25T14:22:53.397Z,32.79
2022-08-25T14:23:53.384Z,32.74
2022-08-25T14:24:53.337Z,32.57
2022-08-25T14:25:53.364Z,32.57
2022-08-25T14:26:53.821Z,32.56
2022-08-25T14:28:08.803Z,32.55
2022-08-25T14:28:54.301Z,32.50
2022-08-25T14:29:53.327Z,32.57
2022-08-25T14:30:53.287Z,32.51
2022-08-25T14:31:53.323Z,32.55
2022-08-25T14:32:53.260Z,32.59
2022-08-25T14:33:53.253Z,32.50
2022-08-25T14:34:53.267Z,32.50
2022-08-25T14:35:53.715Z,32.35
2022-08-25T14:36:53.242Z,32.37
2022-08-25T14:37:53.242Z,32.33
2022-08-25T14:38:54.558Z,32.38
2022-08-25T14:39:53.279Z,32.41
2022-08-25T14:40:53.208Z,32.47
2022-08-25T14:41:53.328Z,32.40
2022-08-25T14:42:53.174Z,32.28
2022-08-25T14:43:53.172Z,32.26
2022-08-25T14:44:53.154Z,32.40
2022-08-25T14:45:53.189Z,32.28
2022-08-25T14:46:53.123Z,32.28
2022-08-25T14:47:53.110Z,32.21
2022-08-25T14:48:53.128Z,32.23
2022-08-25T14:49:53.125Z,32.18
2022-08-25T14:50:53.084Z,32.18
2022-08-25T14:51:53.076Z,32.11
2022-08-25T14:52:53.168Z,32.22
2022-08-25T14:53:54.060Z,32.32
2022-08-25T14:54:53.057Z,32.29
2022-08-25T14:55:53.058Z,32.26
2022-08-25T14:56:53.014Z,32.25
2022-08-25T14:57:53.030Z,32.28
2022-08-25T14:58:54.304Z,32.21
2022-08-25T14:59:53.043Z,32.18
2022-08-25T15:00:53.061Z,32.18
2022-08-25T15:01:52.967Z,32.22
2022-08-25T15:02:53.030Z,32.25
2022-08-25T15:03:53.048Z,32.13
2022-08-25T15:04:52.936Z,32.13
2022-08-25T15:05:52.923Z,32.13
2022-08-25T15:06:52.931Z,32.11
2022-08-25T15:07:52.917Z,32.04
2022-08-25T15:08:52.896Z,32.14
2022-08-25T15:09:52.885Z,32.13
2022-08-25T15:10:52.880Z,32.01
2022-08-25T15:11:52.881Z,32.14
2022-08-25T15:12:54.072Z,32.13
2022-08-25T15:13:52.867Z,32.14
2022-08-25T15:14:52.834Z,32.03
2022-08-25T15:15:53.274Z,32.06
2022-08-25T15:16:52.925Z,31.88
2022-08-25T15:17:52.815Z,31.86
2022-08-25T15:18:52.807Z,31.84
2022-08-25T15:19:52.777Z,31.78
2022-08-25T15:20:52.764Z,31.75
2022-08-25T15:21:52.781Z,31.75
2022-08-25T15:22:52.760Z,31.80
2022-08-25T15:23:56.227Z,31.72
2022-08-25T15:24:52.723Z,31.76
2022-08-25T15:25:53.133Z,31.84
2022-08-25T15:27:52.774Z,31.72
2022-08-25T15:28:52.699Z,31.70
2022-08-25T15:29:52.675Z,31.73
2022-08-25T15:30:52.677Z,31.73
2022-08-25T15:31:52.714Z,31.75
2022-08-25T15:32:52.664Z,31.78
2022-08-25T15:33:52.664Z,31.68
2022-08-25T15:34:52.636Z,31.72
2022-08-25T15:35:52.603Z,31.66
2022-08-25T15:36:52.598Z,31.66
2022-08-25T15:37:52.603Z,31.65
2022-08-25T15:38:52.597Z,31.57
2022-08-25T15:39:52.610Z,31.58
2022-08-25T15:40:52.573Z,31.54
2022-08-25T15:41:52.608Z,31.46
2022-08-25T15:42:52.526Z,31.41
2022-08-25T15:43:52.512Z,31.56
2022-08-25T15:44:53.295Z,31.50
2022-08-25T15:45:52.512Z,31.50
2022-08-25T15:46:52.573Z,31.54
2022-08-25T15:47:53.985Z,31.54
2022-08-25T15:48:52.497Z,31.48
2022-08-25T15:49:52.463Z,31.43
2022-08-25T15:50:52.444Z,31.41
2022-08-25T15:51:52.582Z,31.38
2022-08-25T15:52:52.440Z,31.25
2022-08-25T15:53:52.403Z,31.31
2022-08-25T15:54:52.425Z,31.31
2022-08-25T15:55:52.430Z,31.28
2022-08-25T15:56:52.378Z,31.38
2022-08-25T15:57:52.387Z,31.39
2022-08-25T15:58:52.372Z,31.43
2022-08-25T15:59:52.349Z,31.39
2022-08-25T16:00:56.574Z,31.43
2022-08-25T16:01:52.385Z,31.36
2022-08-25T16:02:52.348Z,31.34
2022-08-25T16:03:52.329Z,31.34
2022-08-25T16:04:52.324Z,31.41
2022-08-25T16:05:52.283Z,31.34
2022-08-25T16:06:52.417Z,31.43
2022-08-25T16:07:52.284Z,31.32
2022-08-25T16:08:52.252Z,31.35
2022-08-25T16:09:52.258Z,31.28
2022-08-25T16:10:52.239Z,31.19
2022-08-25T16:11:56.852Z,31.10
2022-08-25T16:12:53.226Z,31.02
2022-08-25T16:13:52.193Z,31.04
2022-08-25T16:14:52.251Z,30.95
2022-08-25T16:15:54.187Z,31.01
2022-08-25T16:16:52.167Z,30.97
2022-08-25T16:17:52.162Z,30.92
2022-08-25T16:18:52.165Z,30.94
2022-08-25T16:19:52.137Z,30.91
2022-08-25T16:20:52.122Z,30.88
2022-08-25T16:21:52.116Z,30.84
2022-08-25T16:22:52.143Z,30.86
2022-08-25T16:23:52.102Z,30.91
2022-08-25T16:24:52.079Z,30.83
2022-08-25T16:25:52.076Z,30.89
2022-08-25T16:26:52.076Z,30.89
2022-08-25T16:27:52.082Z,30.86
2022-08-25T16:28:52.041Z,30.84
2022-08-25T16:29:52.026Z,30.88
2022-08-25T16:30:52.899Z,30.97
2022-08-25T16:31:53.377Z,30.98
2022-08-25T16:32:52.011Z,30.92
2022-08-25T16:33:54.751Z,30.95
2022-08-25T16:34:52.976Z,30.97
2022-08-25T16:35:51.963Z,30.92
2022-08-25T16:36:52.029Z,30.82
2022-08-25T16:37:51.946Z,30.86
2022-08-25T16:38:51.963Z,30.91
2022-08-25T16:39:52.003Z,30.82
2022-08-25T16:40:51.915Z,30.82
2022-08-25T16:41:51.909Z,30.73
2022-08-25T16:42:51.911Z,30.76
2022-08-25T16:43:51.905Z,30.70
2022-08-25T16:44:52.771Z,30.67
2022-08-25T16:45:51.856Z,30.61
2022-08-25T16:46:51.873Z,30.55
2022-08-25T16:47:51.864Z,30.49
2022-08-25T16:48:51.831Z,30.51
2022-08-25T16:49:51.950Z,30.51
2022-08-25T16:50:51.825Z,30.57
2022-08-25T16:51:57.714Z,30.46
2022-08-25T16:52:52.815Z,30.57
2022-08-25T16:53:51.776Z,30.51
2022-08-25T16:54:51.771Z,30.49
2022-08-25T16:55:51.797Z,30.49
2022-08-25T16:56:54.812Z,30.49
2022-08-25T16:57:51.738Z,30.61
2022-08-25T16:58:52.230Z,30.61
2022-08-25T16:59:51.730Z,30.47
2022-08-25T17:00:51.733Z,30.64
2022-08-25T17:01:51.972Z,30.47
2022-08-25T17:02:51.692Z,30.57
2022-08-25T17:03:51.685Z,30.49
2022-08-25T17:04:51.662Z,30.57
2022-08-25T17:05:51.656Z,30.61
2022-08-25T17:06:52.279Z,30.57
2022-08-25T17:07:51.627Z,30.60
2022-08-25T17:08:51.648Z,30.53
2022-08-25T17:09:51.614Z,30.49
2022-08-25T17:10:51.598Z,30.43
2022-08-25T17:11:51.586Z,30.38
2022-08-25T17:12:51.592Z,30.47
2022-08-25T17:13:51.601Z,30.43
2022-08-25T17:14:51.560Z,30.37
2022-08-25T17:15:52.382Z,30.43
2022-08-25T17:16:51.530Z,30.43
2022-08-25T17:17:51.530Z,30.34
2022-08-25T17:18:51.513Z,30.34
2022-08-25T17:19:53.488Z,30.39
2022-08-25T17:20:51.488Z,30.38
2022-08-25T17:21:51.497Z,30.35
2022-08-25T17:22:51.471Z,30.29
2022-08-25T17:23:51.539Z,30.27
2022-08-25T17:24:59.202Z,30.27